Time;durP1;ratioP1;P1;durP2;ratioP2;P2;SDS_P1;SDS_P2;PMS_P1;PMS_P2;Temp;Humidity;BMP_temperature;BMP_pressure;BME280_temperature;BME280_humidity;BME280_pressure;Samples;Min_cycle;Max_cycle;Signal;HPM_P1;HPM_P2
2022/12/13 00:02:05;;;;;;;29.40;14.85;;;-13.70;99.90;;;;;;5026780;28;20033;-51
2022/12/13 00:04:30;;;;;;;26.30;15.43;;;-13.70;99.90;;;;;;5028312;28;20029;-53
2022/12/13 00:06:56;;;;;;;22.67;15.18;;;-13.70;99.90;;;;;;5028208;28;20029;-52
2022/12/13 00:09:22;;;;;;;23.58;14.13;;;-13.80;99.90;;;;;;5028381;28;20108;-55
2022/12/13 00:11:48;;;;;;;26.17;14.43;;;-13.80;99.90;;;;;;5026142;28;20567;-52
2022/12/13 00:14:15;;;;;;;22.42;15.02;;;-13.80;99.90;;;;;;5026766;28;20102;-52
2022/12/13 00:16:44;;;;;;;27.90;15.95;;;-13.90;99.90;;;;;;5027062;28;20022;-51
2022/12/13 00:19:10;;;;;;;22.90;14.73;;;-14.00;99.90;;;;;;5027865;28;20053;-52
2022/12/13 00:21:36;;;;;;;22.80;15.15;;;-14.10;99.90;;;;;;5028077;28;20061;-50
2022/12/13 00:24:04;;;;;;;21.08;14.48;;;-14.00;99.90;;;;;;5027986;28;20041;-51
2022/12/13 00:26:31;;;;;;;20.85;13.55;;;-14.00;99.90;;;;;;5027972;27;20032;-49
2022/12/13 00:29:01;;;;;;;27.65;14.45;;;-13.90;99.90;;;;;;5026651;28;20120;-53
2022/12/13 00:31:30;;;;;;;27.52;14.35;;;-14.00;99.90;;;;;;5041674;28;20029;-54
2022/12/13 00:33:56;;;;;;;32.53;14.38;;;-14.00;99.90;;;;;;5047914;28;20021;-51
2022/12/13 00:36:22;;;;;;;22.83;13.32;;;-13.90;99.90;;;;;;5051293;28;20460;-50
2022/12/13 00:38:59;;;;;;;24.25;14.40;;;-13.90;99.90;;;;;;5051233;28;20085;-55
2022/12/13 00:41:26;;;;;;;24.80;13.52;;;-13.90;99.90;;;;;;5051026;28;20119;-54
2022/12/13 00:43:52;;;;;;;30.35;13.82;;;-14.00;99.90;;;;;;5050909;28;20028;-51
2022/12/13 00:46:20;;;;;;;22.75;13.07;;;-14.00;99.90;;;;;;5051018;28;20021;-51
2022/12/13 00:48:51;;;;;;;17.85;13.20;;;-14.00;99.90;;;;;;5051173;28;20032;-50
2022/12/13 00:51:18;;;;;;;19.60;12.38;;;-14.00;99.90;;;;;;5050881;28;20341;-54
2022/12/13 00:53:43;;;;;;;28.77;15.00;;;-14.10;99.90;;;;;;5049796;28;20033;-49
2022/12/13 00:56:11;;;;;;;21.90;13.95;;;-14.10;99.90;;;;;;5050849;28;20112;-52
2022/12/13 00:58:37;;;;;;;20.00;12.73;;;-14.20;99.90;;;;;;5050968;28;20376;-53
2022/12/13 01:01:06;;;;;;;22.55;13.95;;;-14.20;99.90;;;;;;5050712;28;20021;-51
2022/12/13 01:03:32;;;;;;;20.02;12.35;;;-14.20;99.90;;;;;;5050691;28;20032;-49
2022/12/13 01:05:58;;;;;;;20.27;12.82;;;-14.20;99.90;;;;;;5050620;28;20025;-49
2022/12/13 01:08:24;;;;;;;18.63;12.25;;;-14.20;99.90;;;;;;5050490;28;20021;-50
2022/12/13 01:10:50;;;;;;;19.20;13.32;;;-14.10;99.90;;;;;;5050619;28;20344;-50
2022/12/13 01:13:15;;;;;;;22.13;13.32;;;-14.20;99.90;;;;;;5050484;28;20037;-49
2022/12/13 01:15:43;;;;;;;21.67;13.63;;;-14.10;99.90;;;;;;5050616;28;20065;-53
2022/12/13 01:18:10;;;;;;;21.50;12.85;;;-14.10;99.90;;;;;;5050458;28;20072;-52
2022/12/13 01:20:37;;;;;;;24.13;12.70;;;-14.10;99.90;;;;;;5049223;28;20017;-50
2022/12/13 01:23:03;;;;;;;18.92;11.45;;;-14.20;99.90;;;;;;5050167;28;20036;-47
2022/12/13 01:25:29;;;;;;;18.05;12.65;;;-14.20;99.90;;;;;;5050625;28;20055;-51
2022/12/13 01:27:55;;;;;;;20.70;13.75;;;-14.20;99.90;;;;;;5050438;28;20056;-51
2022/12/13 01:30:20;;;;;;;25.05;12.90;;;-14.20;99.90;;;;;;5050160;28;20033;-49
2022/12/13 01:36:12;;;;;;;19.55;13.32;;;-14.30;99.90;;;;;;5049898;28;20055;-51
2022/12/13 01:38:38;;;;;;;20.02;12.57;;;-14.30;99.90;;;;;;5050037;28;20441;-50
2022/12/13 01:41:05;;;;;;;21.13;12.02;;;-14.30;99.90;;;;;;5050032;28;20059;-52
2022/12/13 01:43:36;;;;;;;21.15;11.05;;;-14.30;99.90;;;;;;5049821;28;20025;-48
2022/12/13 01:46:03;;;;;;;31.13;13.98;;;-14.30;99.90;;;;;;5047724;28;20021;-52
2022/12/13 01:48:34;;;;;;;23.00;12.27;;;-14.30;99.90;;;;;;5050114;28;20074;-53
2022/12/13 01:51:03;;;;;;;17.63;12.02;;;-14.30;99.90;;;;;;5049912;28;20025;-49
2022/12/13 01:53:33;;;;;;;21.52;13.50;;;-14.30;99.90;;;;;;5049972;28;20078;-51
2022/12/13 01:56:15;;;;;;;17.85;11.20;;;-14.40;99.90;;;;;;5049869;28;20025;-51
2022/12/13 01:58:41;;;;;;;17.30;12.32;;;-14.40;99.90;;;;;;5049923;28;20413;-51
2022/12/13 02:01:07;;;;;;;23.92;12.60;;;-14.30;99.90;;;;;;5049741;28;20021;-49
2022/12/13 02:03:34;;;;;;;21.58;12.75;;;-14.30;99.90;;;;;;5048567;28;20116;-51
2022/12/13 02:06:09;;;;;;;21.05;12.27;;;-14.30;99.90;;;;;;5049779;28;20025;-54
2022/12/13 02:08:37;;;;;;;17.75;11.40;;;-14.30;99.90;;;;;;5049853;28;20504;-50
2022/12/13 02:11:04;;;;;;;14.48;12.18;;;-14.30;99.90;;;;;;5049418;28;20048;-51
2022/12/13 02:13:29;;;;;;;21.77;12.35;;;-14.20;99.90;;;;;;5049692;28;20032;-52
2022/12/13 02:16:21;;;;;;;26.10;12.52;;;-14.30;99.90;;;;;;5049697;28;20406;-49
2022/12/13 02:19:29;;;;;;;20.40;12.77;;;-14.30;99.90;;;;;;5049554;28;20124;-53
2022/12/13 02:22:35;;;;;;;23.70;12.75;;;-14.40;99.90;;;;;;4995277;28;20117;-50
2022/12/13 02:25:22;;;;;;;21.48;13.23;;;-14.30;99.90;;;;;;5049408;28;20396;-49
2022/12/13 02:28:25;;;;;;;22.45;12.63;;;-14.40;99.90;;;;;;5048242;28;20021;-50
2022/12/13 02:30:57;;;;;;;12.07;10.75;;;-14.40;99.90;;;;;;5049470;28;20020;-50
2022/12/13 02:33:39;;;;;;;20.38;12.40;;;-14.40;99.90;;;;;;5049420;28;20040;-53
2022/12/13 02:36:12;;;;;;;24.33;13.13;;;-14.40;99.90;;;;;;5049265;28;20361;-49
2022/12/13 02:38:56;;;;;;;20.98;13.10;;;-14.40;99.90;;;;;;5049442;28;20441;-52
2022/12/13 02:41:33;;;;;;;21.48;12.30;;;-14.40;99.90;;;;;;5049246;28;20029;-54
2022/12/13 02:44:09;;;;;;;56.17;13.90;;;-14.50;99.90;;;;;;5048996;28;20033;-50
2022/12/13 02:46:41;;;;;;;36.10;13.07;;;-14.50;99.90;;;;;;5049217;28;20457;-51
2022/12/13 02:49:09;;;;;;;19.65;12.10;;;-14.50;99.90;;;;;;5049109;28;20428;-50
2022/12/13 02:51:37;;;;;;;19.42;12.85;;;-14.50;99.90;;;;;;5048946;28;20673;-53
2022/12/13 02:54:03;;;;;;;17.05;12.35;;;-14.50;99.90;;;;;;5049047;28;20060;-51
2022/12/13 02:56:30;;;;;;;16.23;12.65;;;-14.50;99.90;;;;;;5049036;28;20056;-48
2022/12/13 02:58:58;;;;;;;17.80;12.27;;;-14.50;99.90;;;;;;5047619;28;20494;-49
2022/12/13 03:01:41;;;;;;;25.67;12.70;;;-14.50;99.90;;;;;;5049113;28;20033;-52
2022/12/13 03:04:22;;;;;;;17.65;12.00;;;-14.50;99.90;;;;;;5048736;28;20112;-49
2022/12/13 03:06:48;;;;;;;15.20;11.45;;;-14.60;99.90;;;;;;5048782;28;20399;-52
2022/12/13 03:09:24;;;;;;;16.05;11.90;;;-14.60;99.90;;;;;;5048636;28;20025;-53
2022/12/13 03:15:20;;;;;;;32.67;12.45;;;-14.60;99.90;;;;;;5033149;28;20089;-51
2022/12/13 03:18:14;;;;;;;31.67;14.05;;;-14.60;99.90;;;;;;5048608;28;20039;-52
2022/12/13 03:20:49;;;;;;;27.10;14.68;;;-14.60;99.90;;;;;;5048793;28;20025;-51
2022/12/13 03:23:16;;;;;;;20.73;12.93;;;-14.60;99.90;;;;;;5048463;28;20360;-49
2022/12/13 03:25:42;;;;;;;40.42;14.20;;;-14.60;99.90;;;;;;5048690;28;20500;-52
2022/12/13 03:28:08;;;;;;;29.20;14.77;;;-14.60;99.90;;;;;;5048422;28;20037;-51
2022/12/13 03:30:34;;;;;;;24.98;14.15;;;-14.50;99.90;;;;;;5048503;28;20108;-50
2022/12/13 03:33:00;;;;;;;37.42;15.30;;;-14.60;99.90;;;;;;5048388;28;20112;-50
2022/12/13 03:35:26;;;;;;;24.13;14.20;;;-14.50;99.90;;;;;;5048588;28;20029;-53
2022/12/13 03:37:52;;;;;;;31.10;16.65;;;-14.60;99.90;;;;;;5048529;28;20037;-49
2022/12/13 03:40:19;;;;;;;26.88;14.60;;;-14.60;99.90;;;;;;5048410;28;20036;-51
2022/12/13 03:42:45;;;;;;;22.42;16.10;;;-14.60;99.90;;;;;;5048370;28;20051;-50
2022/12/13 03:45:11;;;;;;;40.13;17.25;;;-14.60;99.90;;;;;;5048389;28;20363;-49
2022/12/13 03:47:37;;;;;;;35.30;15.93;;;-14.70;99.90;;;;;;5048503;28;20025;-52
2022/12/13 03:50:03;;;;;;;60.40;19.65;;;-14.60;99.90;;;;;;5048149;28;20078;-51
2022/12/13 03:52:28;;;;;;;94.60;20.63;;;-14.50;99.90;;;;;;5048280;28;20029;-48
2022/12/13 03:54:54;;;;;;;64.82;20.10;;;-14.60;99.90;;;;;;5048446;28;20116;-50
2022/12/13 03:57:19;;;;;;;55.20;19.00;;;-14.50;99.90;;;;;;5048034;28;20033;-51
2022/12/13 03:59:45;;;;;;;58.20;18.60;;;-14.60;99.90;;;;;;5048145;28;20013;-51
2022/12/13 04:02:11;;;;;;;68.57;18.48;;;-14.50;99.90;;;;;;5047925;28;20410;-52
2022/12/13 04:04:36;;;;;;;46.95;17.08;;;-14.50;99.90;;;;;;5048137;28;20036;-48
2022/12/13 04:07:02;;;;;;;30.55;17.02;;;-14.40;99.90;;;;;;5047956;28;20025;-50
2022/12/13 04:09:37;;;;;;;53.30;17.27;;;-14.30;99.90;;;;;;5049073;28;20120;-51
2022/12/13 04:14:47;;;;;;;34.08;18.10;;;-14.20;99.90;;;;;;5051579;28;20040;-49
2022/12/13 04:17:13;;;;;;;50.33;18.83;;;-14.20;99.90;;;;;;5051437;28;20017;-54
2022/12/13 04:19:39;;;;;;;36.40;18.55;;;-14.10;99.90;;;;;;5051376;28;20025;-49
2022/12/13 04:22:04;;;;;;;46.25;23.35;;;-14.10;99.90;;;;;;5051267;28;20405;-50
2022/12/13 04:24:30;;;;;;;48.80;25.52;;;-14.10;99.90;;;;;;5051358;28;20035;-48
2022/12/13 04:26:55;;;;;;;40.55;20.85;;;-14.10;99.90;;;;;;5051318;28;20025;-49
2022/12/13 04:29:21;;;;;;;42.42;19.15;;;-14.00;99.90;;;;;;5051205;28;20049;-52
2022/12/13 04:31:47;;;;;;;39.75;19.58;;;-13.90;99.90;;;;;;5051413;28;20401;-51
2022/12/13 04:34:12;;;;;;;41.60;18.88;;;-13.80;99.90;;;;;;5051066;28;20029;-49
2022/12/13 04:36:38;;;;;;;36.08;18.73;;;-13.80;99.90;;;;;;5051215;28;20113;-49
2022/12/13 04:39:04;;;;;;;37.13;18.05;;;-13.70;99.90;;;;;;5050979;28;20021;-48
2022/12/13 04:41:36;;;;;;;35.72;15.55;;;-13.60;99.90;;;;;;5050990;28;20097;-52
2022/12/13 04:44:03;;;;;;;33.78;21.13;;;-13.50;99.90;;;;;;5049486;28;20388;-49
2022/12/13 04:46:29;;;;;;;33.88;16.63;;;-13.40;99.90;;;;;;5049738;28;20021;-49
2022/12/13 04:48:54;;;;;;;31.08;14.73;;;-13.30;99.90;;;;;;5051012;28;20024;-52
2022/12/13 04:51:20;;;;;;;25.85;14.57;;;-13.20;99.90;;;;;;5050750;28;20452;-51
2022/12/13 04:53:46;;;;;;;23.40;15.02;;;-12.90;99.90;;;;;;5050178;28;20013;-50
2022/12/13 04:56:11;;;;;;;29.92;16.75;;;-12.70;99.90;;;;;;5049856;28;20425;-50
2022/12/13 04:58:37;;;;;;;24.75;13.85;;;-12.50;99.90;;;;;;5050429;28;20460;-54
2022/12/13 05:01:09;;;;;;;27.48;15.60;;;-12.30;99.90;;;;;;5049888;28;20029;-52
2022/12/13 05:03:38;;;;;;;25.10;17.67;;;-12.10;99.90;;;;;;5049830;28;20036;-55
2022/12/13 05:06:08;;;;;;;22.05;13.73;;;-12.10;99.90;;;;;;5049867;28;20026;-51
2022/12/13 05:08:35;;;;;;;21.85;13.10;;;-12.20;99.90;;;;;;5050044;28;20017;-53
2022/12/13 05:11:00;;;;;;;23.85;14.02;;;-12.20;99.90;;;;;;5050081;28;20033;-53
2022/12/13 05:13:26;;;;;;;23.15;14.38;;;-12.40;99.90;;;;;;5049306;28;20036;-52
2022/12/13 05:16:01;;;;;;;25.38;16.13;;;-12.50;99.90;;;;;;5050685;28;20036;-54
2022/12/13 05:18:27;;;;;;;25.27;15.93;;;-12.70;99.90;;;;;;5050581;28;20033;-52
2022/12/13 05:20:53;;;;;;;28.60;16.30;;;-12.70;99.90;;;;;;5049337;28;20061;-51
2022/12/13 05:23:22;;;;;;;24.90;16.40;;;-12.80;99.90;;;;;;5050139;28;20058;-53
2022/12/13 05:25:47;;;;;;;24.17;14.68;;;-12.80;99.90;;;;;;5050055;28;20029;-55
2022/12/13 05:28:13;;;;;;;24.08;14.95;;;-12.90;99.90;;;;;;5050168;28;20029;-53
2022/12/13 05:30:40;;;;;;;26.35;14.93;;;-13.00;99.90;;;;;;5050364;28;20070;-50
2022/12/13 05:33:06;;;;;;;26.48;16.73;;;-13.20;99.90;;;;;;5050159;28;20349;-52
2022/12/13 05:35:32;;;;;;;33.58;18.95;;;-13.20;99.90;;;;;;5050279;28;20111;-52
2022/12/13 05:37:58;;;;;;;35.85;18.67;;;-13.20;99.90;;;;;;5050114;28;20104;-50
2022/12/13 05:40:26;;;;;;;44.05;20.00;;;-13.30;99.90;;;;;;5050410;28;20480;-52
2022/12/13 05:42:52;;;;;;;34.67;17.92;;;-13.30;99.90;;;;;;5049859;28;20029;-54
2022/12/13 05:45:18;;;;;;;32.97;17.92;;;-13.40;99.90;;;;;;5048628;28;20032;-51
2022/12/13 05:47:45;;;;;;;30.60;19.00;;;-13.50;99.90;;;;;;5049798;28;20013;-53
2022/12/13 05:50:11;;;;;;;41.63;19.90;;;-13.50;99.90;;;;;;5049855;28;20085;-51
2022/12/13 05:52:38;;;;;;;35.13;20.17;;;-13.50;99.90;;;;;;5049829;28;20025;-53
2022/12/13 05:55:04;;;;;;;41.75;22.05;;;-13.50;99.90;;;;;;5048277;28;20523;-51
2022/12/13 05:57:29;;;;;;;38.03;21.77;;;-13.50;99.90;;;;;;5047700;28;20029;-50
2022/12/13 05:59:55;;;;;;;32.88;19.02;;;-13.40;99.90;;;;;;5047763;28;20085;-52
2022/12/13 06:02:21;;;;;;;47.53;19.85;;;-13.30;99.90;;;;;;5048328;28;20033;-51
2022/12/13 06:04:47;;;;;;;35.28;17.60;;;-13.20;99.90;;;;;;5048582;28;20061;-53
2022/12/13 06:07:13;;;;;;;36.53;19.30;;;-13.10;99.90;;;;;;5048705;28;20013;-48
2022/12/13 06:09:39;;;;;;;38.90;19.85;;;-12.80;99.90;;;;;;5048456;28;20020;-50
2022/12/13 06:12:05;;;;;;;63.97;36.13;;;-12.40;99.90;;;;;;5046954;28;20044;-54
2022/12/13 06:14:30;;;;;;;49.78;28.55;;;-12.00;99.90;;;;;;5047398;28;20025;-49
2022/12/13 06:16:56;;;;;;;68.28;32.75;;;-11.50;99.90;;;;;;5047937;28;20429;-53
2022/12/13 06:19:22;;;;;;;71.13;33.92;;;-10.90;99.90;;;;;;5048524;28;20017;-50
2022/12/13 06:21:49;;;;;;;48.35;27.10;;;-10.50;99.90;;;;;;5048430;28;20104;-49
2022/12/13 06:24:17;;;;;;;57.75;27.55;;;-10.10;99.90;;;;;;5048175;28;20101;-49
2022/12/13 06:26:43;;;;;;;55.58;28.95;;;-9.70;99.90;;;;;;5048223;28;20425;-50
2022/12/13 06:29:09;;;;;;;44.20;26.77;;;-9.50;99.90;;;;;;5048183;28;20049;-50
2022/12/13 06:31:35;;;;;;;55.35;27.48;;;-9.30;99.90;;;;;;5048137;28;20405;-54
2022/12/13 06:34:04;;;;;;;79.10;30.20;;;-9.20;99.90;;;;;;5047935;28;20029;-51
2022/12/13 06:36:30;;;;;;;53.72;26.25;;;-9.10;99.90;;;;;;5048464;28;20046;-52
2022/12/13 06:38:56;;;;;;;64.07;29.85;;;-9.00;99.90;;;;;;5048086;28;20020;-53
2022/12/13 06:41:21;;;;;;;59.25;29.25;;;-9.00;99.90;;;;;;5048202;28;20563;-52
2022/12/13 06:43:47;;;;;;;59.17;28.77;;;-8.90;99.90;;;;;;5047765;28;20029;-49
2022/12/13 06:46:14;;;;;;;62.40;29.52;;;-8.80;99.90;;;;;;5048051;28;20055;-50
2022/12/13 06:48:40;;;;;;;52.10;26.88;;;-8.70;99.90;;;;;;5047857;28;20098;-54
2022/12/13 06:51:07;;;;;;;66.85;28.58;;;-8.70;99.90;;;;;;5047931;28;20025;-53
2022/12/13 06:53:36;;;;;;;53.78;29.33;;;-8.70;99.90;;;;;;5048098;28;20021;-51
2022/12/13 06:56:06;;;;;;;53.65;27.05;;;-8.70;99.90;;;;;;5047601;28;20436;-50
2022/12/13 06:58:33;;;;;;;52.63;26.45;;;-8.50;99.90;;;;;;5047700;28;20051;-52
2022/12/13 07:01:06;;;;;;;60.67;30.77;;;-8.60;99.90;;;;;;5047238;28;20053;-52
2022/12/13 07:03:32;;;;;;;58.90;31.45;;;-8.60;99.90;;;;;;5047665;28;20032;-50
2022/12/13 07:05:59;;;;;;;58.25;28.52;;;-8.70;99.90;;;;;;5047731;28;20028;-51
2022/12/13 07:08:25;;;;;;;51.28;28.05;;;-8.70;99.90;;;;;;5047709;28;20054;-51
2022/12/13 07:10:54;;;;;;;52.58;25.90;;;-8.70;99.90;;;;;;5047564;28;20157;-52
2022/12/13 07:13:21;;;;;;;50.67;27.30;;;-8.80;99.90;;;;;;5047862;28;20120;-48
2022/12/13 07:15:56;;;;;;;52.90;26.27;;;-8.90;99.90;;;;;;5047699;28;20037;-53
2022/12/13 07:18:22;;;;;;;47.00;26.73;;;-8.90;99.90;;;;;;5047722;28;20021;-50
2022/12/13 07:20:47;;;;;;;56.15;25.45;;;-9.00;99.90;;;;;;5047433;28;20028;-49
2022/12/13 07:23:13;;;;;;;49.60;26.13;;;-9.00;99.90;;;;;;5047482;28;20492;-49
2022/12/13 07:25:39;;;;;;;50.08;27.73;;;-8.90;99.90;;;;;;5047460;28;20024;-53
2022/12/13 07:28:07;;;;;;;47.22;25.20;;;-8.80;99.90;;;;;;5046025;28;20487;-52
2022/12/13 07:30:35;;;;;;;45.28;25.02;;;-8.80;99.90;;;;;;5047502;28;20379;-53
2022/12/13 07:33:02;;;;;;;42.63;23.15;;;-8.60;99.90;;;;;;5047426;28;20025;-52
2022/12/13 07:35:28;;;;;;;49.60;22.90;;;-8.60;99.90;;;;;;5047284;28;20428;-52
2022/12/13 07:37:54;;;;;;;39.75;21.80;;;-8.50;99.90;;;;;;5047550;28;20112;-48
2022/12/13 07:40:19;;;;;;;48.10;22.80;;;-8.40;99.90;;;;;;5047114;28;20063;-54
2022/12/13 07:42:55;;;;;;;47.03;21.92;;;-8.30;99.90;;;;;;5047312;28;20484;-52
2022/12/13 07:45:22;;;;;;;39.65;22.27;;;-8.30;99.90;;;;;;5049496;28;20453;-50
2022/12/13 07:47:48;;;;;;;38.17;24.95;;;-8.30;99.90;;;;;;5050594;28;20022;-53
2022/12/13 07:50:14;;;;;;;52.33;22.50;;;-8.20;99.90;;;;;;5050530;28;20375;-50
2022/12/13 07:52:41;;;;;;;44.10;22.73;;;-8.20;99.90;;;;;;5049430;28;20468;-50
2022/12/13 07:55:07;;;;;;;44.85;24.27;;;-8.00;99.90;;;;;;5050522;28;20029;-50
2022/12/13 07:57:33;;;;;;;42.25;24.38;;;-7.90;99.90;;;;;;5049460;28;20036;-51
2022/12/13 07:59:59;;;;;;;51.05;25.80;;;-7.80;99.90;;;;;;5050589;28;20072;-49
2022/12/13 08:02:25;;;;;;;57.30;25.58;;;-7.80;99.90;;;;;;5050553;28;20060;-49
2022/12/13 08:04:52;;;;;;;49.80;24.85;;;-7.60;99.90;;;;;;5050961;28;20021;-52
2022/12/13 08:07:17;;;;;;;39.65;22.77;;;-7.60;99.90;;;;;;5050376;28;20063;-49
2022/12/13 08:09:43;;;;;;;54.53;25.67;;;-7.50;99.90;;;;;;5050599;28;20057;-49
2022/12/13 08:12:08;;;;;;;47.58;23.65;;;-7.40;99.90;;;;;;5050166;28;20106;-51
2022/12/13 08:14:34;;;;;;;45.55;23.88;;;-7.40;99.90;;;;;;5050746;28;20624;-50
2022/12/13 08:17:00;;;;;;;48.50;24.95;;;-7.40;99.90;;;;;;5050266;28;20539;-53
2022/12/13 08:19:26;;;;;;;48.65;25.58;;;-7.30;99.90;;;;;;5050319;28;20481;-51
2022/12/13 08:21:51;;;;;;;67.75;26.98;;;-7.20;99.90;;;;;;5050299;28;20013;-49
2022/12/13 08:24:18;;;;;;;234.55;100.60;;;-7.00;99.90;;;;;;5050109;28;20028;-53
2022/12/13 08:26:44;;;;;;;57.92;33.78;;;-6.70;99.90;;;;;;5050155;28;20063;-51
2022/12/13 08:29:11;;;;;;;51.78;25.83;;;-6.90;99.90;;;;;;5048759;28;20077;-52
2022/12/13 08:31:37;;;;;;;77.13;42.17;;;-6.90;99.90;;;;;;5050286;28;20038;-50
2022/12/13 08:34:03;;;;;;;600.72;281.23;;;-6.70;99.90;;;;;;5049971;28;20593;-52
2022/12/13 08:36:29;;;;;;;424.55;216.32;;;-6.60;99.90;;;;;;5050074;28;20025;-49
2022/12/13 08:38:56;;;;;;;183.05;100.57;;;-6.60;99.90;;;;;;5049877;28;20025;-52
2022/12/13 08:41:22;;;;;;;75.55;47.00;;;-6.50;99.90;;;;;;5049888;28;20029;-50
2022/12/13 08:43:48;;;;;;;40.50;22.77;;;-6.40;99.90;;;;;;5049822;28;20042;-52
2022/12/13 08:46:13;;;;;;;41.90;22.30;;;-6.50;99.90;;;;;;5049749;28;20027;-50
2022/12/13 08:48:40;;;;;;;40.72;24.15;;;-6.60;99.90;;;;;;5049876;28;20025;-50
2022/12/13 08:51:07;;;;;;;41.40;20.15;;;-6.60;99.90;;;;;;5049600;28;20035;-50
2022/12/13 08:53:33;;;;;;;37.17;20.02;;;-6.60;99.90;;;;;;5049593;28;20021;-50
2022/12/13 08:56:06;;;;;;;40.13;20.55;;;-6.80;99.90;;;;;;5049755;28;20404;-49
2022/12/13 08:58:32;;;;;;;53.67;29.77;;;-6.80;99.90;;;;;;5048651;28;20375;-49
2022/12/13 09:00:58;;;;;;;47.05;26.58;;;-6.90;99.90;;;;;;5049460;28;20029;-52
2022/12/13 09:03:24;;;;;;;43.15;23.23;;;-7.10;99.90;;;;;;5049696;28;20436;-50
2022/12/13 09:05:50;;;;;;;32.13;18.35;;;-7.10;99.90;;;;;;5048224;28;20031;-51
2022/12/13 09:08:17;;;;;;;39.40;20.48;;;-7.20;99.90;;;;;;5049609;28;20578;-49
2022/12/13 09:10:42;;;;;;;42.20;22.05;;;-7.20;99.90;;;;;;5049295;28;20017;-51
2022/12/13 09:13:08;;;;;;;48.88;31.17;;;-7.40;99.90;;;;;;5049488;28;20040;-50
2022/12/13 09:15:38;;;;;;;37.72;20.27;;;-7.40;99.90;;;;;;5049369;28;20049;-49
2022/12/13 09:18:04;;;;;;;34.22;17.98;;;-7.40;99.90;;;;;;5049405;28;20032;-51
2022/12/13 09:20:30;;;;;;;29.80;20.05;;;-7.30;99.90;;;;;;5049377;28;20025;-50
2022/12/13 09:22:56;;;;;;;32.85;18.48;;;-7.10;99.90;;;;;;5049462;28;20059;-50
2022/12/13 09:25:22;;;;;;;30.70;18.92;;;-7.10;99.90;;;;;;5049163;28;20021;-49
2022/12/13 09:27:48;;;;;;;31.27;16.55;;;-6.70;99.90;;;;;;5049145;28;20044;-51
2022/12/13 09:30:14;;;;;;;30.17;18.30;;;-5.60;99.90;;;;;;5049038;28;20056;-52
2022/12/13 09:32:40;;;;;;;28.17;17.00;;;-4.40;99.90;;;;;;5049343;28;20019;-51
2022/12/13 09:35:07;;;;;;;26.13;15.40;;;-3.00;98.70;;;;;;5048970;28;20048;-51
2022/12/13 09:37:33;;;;;;;19.73;13.25;;;-1.90;95.40;;;;;;5048990;28;20032;-52
2022/12/13 09:39:59;;;;;;;25.88;14.93;;;-1.20;90.80;;;;;;5049096;28;20027;-50
2022/12/13 09:42:30;;;;;;;26.10;13.65;;;-0.40;86.50;;;;;;5049157;28;20116;-54
2022/12/13 09:44:59;;;;;;;19.58;12.70;;;-0.40;84.80;;;;;;5049124;28;20033;-52
2022/12/13 09:47:30;;;;;;;25.00;13.48;;;0.10;84.10;;;;;;5047563;28;20112;-50
2022/12/13 09:49:58;;;;;;;24.13;13.75;;;0.30;80.50;;;;;;5049067;28;20009;-52
2022/12/13 09:52:25;;;;;;;24.00;14.52;;;0.50;79.40;;;;;;5048946;28;20070;-53
2022/12/13 09:54:55;;;;;;;29.38;15.65;;;1.00;76.20;;;;;;5049197;28;20463;-51
2022/12/13 09:57:28;;;;;;;19.98;12.73;;;1.50;74.10;;;;;;5048866;28;20066;-54
2022/12/13 09:59:54;;;;;;;23.02;13.25;;;1.80;72.30;;;;;;5048620;28;20017;-55
2022/12/13 10:02:22;;;;;;;19.33;13.35;;;2.40;70.00;;;;;;5048661;28;20097;-51
2022/12/13 10:04:48;;;;;;;19.52;13.10;;;2.90;67.20;;;;;;5048789;28;20021;-54
2022/12/13 10:07:21;;;;;;;25.95;15.35;;;2.60;65.60;;;;;;5047729;28;20031;-56
2022/12/13 10:09:48;;;;;;;28.58;16.55;;;2.40;65.90;;;;;;5048764;28;20029;-53
2022/12/13 10:12:15;;;;;;;19.98;13.60;;;2.60;64.90;;;;;;5048029;28;20442;-54
2022/12/13 10:14:57;;;;;;;20.30;13.30;;;2.70;63.70;;;;;;5048797;28;20425;-54
2022/12/13 10:17:26;;;;;;;23.60;13.57;;;2.50;64.10;;;;;;5048556;28;20486;-55
2022/12/13 10:19:52;;;;;;;25.45;13.68;;;2.60;63.70;;;;;;5048335;28;20029;-54
2022/12/13 10:22:21;;;;;;;19.98;13.35;;;1.90;65.10;;;;;;5048359;28;20025;-53
2022/12/13 10:24:53;;;;;;;18.38;11.73;;;2.10;65.00;;;;;;5048309;28;20021;-53
2022/12/13 10:27:28;;;;;;;18.17;12.75;;;2.50;65.40;;;;;;5048311;28;20085;-57
2022/12/13 10:30:07;;;;;;;19.00;11.90;;;3.20;64.30;;;;;;5048492;28;20048;-56
2022/12/13 10:32:42;;;;;;;19.10;11.75;;;3.90;60.90;;;;;;5047170;28;20029;-51
2022/12/13 10:35:39;;;;;;;24.13;15.15;;;3.90;61.60;;;;;;5047931;28;20536;-51
2022/12/13 10:38:07;;;;;;;22.02;13.25;;;3.70;60.10;;;;;;5046234;28;20044;-56
2022/12/13 10:40:33;;;;;;;20.70;12.68;;;3.90;61.00;;;;;;5047979;28;20078;-54
2022/12/13 10:43:37;;;;;;;20.05;11.80;;;4.50;59.20;;;;;;5047954;28;20037;-53
2022/12/13 10:46:03;;;;;;;18.02;11.65;;;5.20;56.70;;;;;;5045036;28;20476;-55
2022/12/13 10:48:45;;;;;;;19.15;11.82;;;5.00;55.30;;;;;;5046772;28;20036;-56
2022/12/13 10:51:14;;;;;;;18.30;11.65;;;4.80;56.20;;;;;;5047937;28;20589;-55
2022/12/13 10:53:47;;;;;;;17.60;12.00;;;4.40;57.20;;;;;;5047654;28;20484;-54
2022/12/13 10:56:13;;;;;;;17.70;11.57;;;4.70;57.10;;;;;;5047735;28;20543;-55
2022/12/13 10:58:41;;;;;;;17.17;10.93;;;4.90;56.30;;;;;;5047799;28;20033;-54
2022/12/13 11:01:22;;;;;;;20.90;9.40;;;4.80;56.00;;;;;;5047905;28;20032;-53
2022/12/13 11:04:00;;;;;;;14.55;10.23;;;5.40;55.00;;;;;;5046543;28;20021;-50
2022/12/13 11:06:38;;;;;;;14.68;9.82;;;4.80;55.70;;;;;;5047630;28;20112;-54
2022/12/13 11:09:13;;;;;;;15.35;8.93;;;4.90;56.00;;;;;;5047521;28;20024;-53
2022/12/13 11:11:39;;;;;;;19.77;9.27;;;5.10;55.40;;;;;;5047584;28;20064;-51
2022/12/13 11:14:05;;;;;;;12.82;7.93;;;5.70;54.70;;;;;;5047584;28;20072;-55
2022/12/13 11:16:34;;;;;;;11.93;8.48;;;6.50;53.50;;;;;;5047604;28;20495;-52
2022/12/13 11:19:06;;;;;;;10.80;8.02;;;6.90;53.10;;;;;;5046221;28;20044;-50
2022/12/13 11:21:35;;;;;;;10.02;7.95;;;6.80;51.80;;;;;;5047583;28;20033;-54
2022/12/13 11:24:04;;;;;;;10.68;8.05;;;7.40;51.60;;;;;;5047315;27;20407;-54
2022/12/13 11:26:35;;;;;;;13.48;8.60;;;6.60;50.80;;;;;;5047579;28;20036;-54
2022/12/13 11:29:18;;;;;;;19.33;7.93;;;6.20;51.70;;;;;;5047270;28;20476;-56
2022/12/13 11:32:14;;;;;;;12.07;8.32;;;6.50;51.40;;;;;;5047458;28;20024;-55
2022/12/13 11:34:52;;;;;;;9.60;7.57;;;6.60;51.50;;;;;;5042259;28;20025;-54
2022/12/13 11:37:39;;;;;;;13.32;8.25;;;6.60;50.60;;;;;;5045887;28;20085;-56
2022/12/13 11:40:14;;;;;;;11.35;8.15;;;6.30;50.30;;;;;;5047124;28;20021;-55
2022/12/13 11:42:53;;;;;;;9.77;7.65;;;6.60;51.00;;;;;;5047207;28;20487;-50
2022/12/13 11:45:37;;;;;;;13.48;7.88;;;7.00;50.00;;;;;;5047289;28;20017;-54
2022/12/13 11:48:18;;;;;;;10.55;8.10;;;6.10;50.90;;;;;;5047104;28;20025;-56
2022/12/13 11:50:48;;;;;;;12.13;7.75;;;6.50;50.90;;;;;;5047393;28;20031;-54
2022/12/13 11:53:38;;;;;;;14.32;7.78;;;6.00;50.70;;;;;;5045733;28;20384;-53
2022/12/13 11:56:24;;;;;;;12.30;8.38;;;6.40;50.10;;;;;;5046878;28;20132;-54
2022/12/13 11:59:03;;;;;;;16.60;8.02;;;5.40;52.10;;;;;;5047183;28;20085;-55
2022/12/13 12:01:46;;;;;;;9.82;7.75;;;5.10;52.50;;;;;;5046873;28;20021;-54
2022/12/13 12:04:40;;;;;;;11.13;8.40;;;4.50;53.20;;;;;;5046758;28;20373;-53
2022/12/13 12:07:12;;;;;;;18.23;8.63;;;3.20;55.80;;;;;;5046835;28;20033;-56
2022/12/13 12:09:41;;;;;;;14.82;8.95;;;1.80;60.00;;;;;;5046388;28;20018;-55
2022/12/13 12:12:31;;;;;;;11.93;9.55;;;0.90;64.00;;;;;;5046295;28;20049;-51
2022/12/13 12:14:59;;;;;;;13.18;9.32;;;0.60;64.90;;;;;;5045203;28;20017;-55
2022/12/13 12:17:25;;;;;;;13.60;9.48;;;0.30;67.10;;;;;;5046867;28;20057;-54
2022/12/13 12:19:57;;;;;;;15.95;9.55;;;0.10;68.20;;;;;;5046687;28;20017;-51
2022/12/13 12:22:41;;;;;;;13.18;9.43;;;0.80;66.20;;;;;;5046771;28;20108;-54
2022/12/13 12:25:34;;;;;;;13.07;8.75;;;1.40;65.10;;;;;;5046674;28;20028;-56
2022/12/13 12:28:14;;;;;;;11.95;8.90;;;1.90;63.30;;;;;;5046516;28;20063;-52
2022/12/13 12:31:01;;;;;;;13.50;9.10;;;2.00;63.60;;;;;;5048104;28;20357;-54
2022/12/13 12:33:38;;;;;;;15.38;9.02;;;1.80;63.70;;;;;;5050136;28;20039;-56
2022/12/13 12:36:22;;;;;;;13.25;9.02;;;1.50;64.40;;;;;;5049947;28;20409;-52
2022/12/13 12:39:00;;;;;;;16.55;9.80;;;1.20;66.10;;;;;;5048916;28;20049;-53
2022/12/13 12:41:31;;;;;;;12.75;9.07;;;1.20;65.90;;;;;;5050111;28;20025;-51
2022/12/13 12:44:27;;;;;;;13.13;9.80;;;1.00;66.60;;;;;;5049881;28;20478;-52
2022/12/13 12:47:22;;;;;;;13.82;9.85;;;0.30;68.10;;;;;;5049732;28;20025;-52
2022/12/13 12:50:32;;;;;;;19.13;11.60;;;-0.10;71.10;;;;;;5049991;28;20021;-50